Terminal Aerodrome Forecast
Issued by NWS Quad Cities IA IL

Home | Current Version | Previous Version | Text Only | Print | Product List | Glossary On
Versions: 1 2 3 4 5 6 7 8 9 10 11 12 13 14 15 16 17 18 19
218
FTUS43 KDVN 251302 AAA
TAFDBQ
TAF AMD
KDBQ 251302Z 2513/2612 32014G20KT P6SM BKN027 BKN100
     FM251500 32015G25KT P6SM SKC
     FM252300 27010KT P6SM SCT250
     FM260400 23006KT P6SM BKN120
     FM260900 19010KT P6SM BKN080=

USA.gov is the U.S. government's official web portal to all federal, state and local government web resources and services.